RODN

Kadena Air Base

Airport
ICAO code
RODN
IATA Code
DNA
Summary
ICAO Region
APAC
ICAO Territory
Location

Kadena, Okinawa

Serving
Kadena
Elevation
146 ft
Coordinates
26° 21' 20" N , 127° 46' 3" E
Metar
RODN 150955Z 12006KT 10SM CLR 31/25 A2987 RMK AO2A SLP115 T03100251 PWINO FZRANO TSNO $

Runways

Designator Length Width Surface Rops
05L/23R 3688 91 ASP Yes/Yes
05R/23L 3688 61 CON Yes/Yes

Airport map

Aerial View

SKYbrary Partners:

Safety knowledge contributed by: